Terminal Aerodrome Forecast
Issued by NWS Duluth, MN

Home | Current Version | Previous Version | Text Only | Print | Product List | Glossary On
Versions: 1 2 3 4 5 6 7 8 9 10 11 12 13 14 15 16 17 18 19 20 21 22 23 24 25 26
000
FTUS43 KDLH 031100 RRA
TAFDLH
TAF
KDLH 031141Z 0312/0412 20008KT 1/2SM SN OVC014
      TEMPO 0312/0314 1 1/2SM -SN BKN025
     FM031400 23007KT 1/2SM SN OVC008
     FM031800 26012KT 3SM -SN BLSN SCT010 OVC020
      TEMPO 0318/0320 1 1/2SM -SN BKN015
     FM032100 30016G26KT 6SM BLSN SCT025
     FM040800 29012KT P6SM SKC=

USA.gov is the U.S. government's official web portal to all federal, state and local government web resources and services.